Time;durP1;ratioP1;P1;durP2;ratioP2;P2;SDS_P1;SDS_P2;PMS_P1;PMS_P2;Temp;Humidity;BMP_temperature;BMP_pressure;BME280_temperature;BME280_humidity;BME280_pressure;Samples;Min_cycle;Max_cycle;Signal;HPM_P1;HPM_P2
2021/09/01 00:03:14;;;;;;;11.03;6.70;;;;;;;;;;10399090;28;20610;-70
2021/09/01 00:08:18;;;;;;;12.70;7.30;;;;;;;;;;10393052;28;20197;-74
2021/09/01 00:13:21;;;;;;;11.80;7.23;;;;;;;;;;10399063;28;20225;-72
2021/09/01 00:18:26;;;;;;;12.57;8.07;;;;;;;;;;10396233;28;20211;-71
2021/09/01 00:23:50;;;;;;;14.10;8.00;;;;;;;;;;10400919;28;20753;-69
2021/09/01 00:28:53;;;;;;;14.20;8.17;;;;;;;;;;10397465;28;20247;-71
2021/09/01 00:33:56;;;;;;;14.40;8.93;;;;;;;;;;10400732;28;20678;-71
2021/09/01 00:39:01;;;;;;;15.37;9.50;;;;;;;;;;10399991;28;20252;-72
2021/09/01 00:44:16;;;;;;;18.00;10.60;;;;;;;;;;10399561;28;20214;-71
2021/09/01 00:49:19;;;;;;;22.27;12.10;;;;;;;;;;10399455;28;20189;-71
2021/09/01 00:54:24;;;;;;;22.77;12.47;;;;;;;;;;10398825;28;20220;-72
2021/09/01 00:59:28;;;;;;;27.53;13.20;;;;;;;;;;10393938;28;20206;-71
2021/09/01 01:04:31;;;;;;;27.10;12.93;;;;;;;;;;10397579;28;20248;-71
2021/09/01 01:09:37;;;;;;;28.40;14.43;;;;;;;;;;10396042;28;20221;-70
2021/09/01 01:14:57;;;;;;;30.10;15.80;;;;;;;;;;10411805;28;20247;-72
2021/09/01 01:20:00;;;;;;;28.97;14.97;;;;;;;;;;10399355;28;20213;-71
2021/09/01 01:25:32;;;;;;;29.13;15.27;;;;;;;;;;10403208;28;20433;-70
2021/09/01 01:30:36;;;;;;;31.27;15.37;;;;;;;;;;10398921;28;20194;-71
2021/09/01 01:35:40;;;;;;;38.30;17.20;;;;;;;;;;10403779;28;20218;-70
2021/09/01 01:40:45;;;;;;;31.83;16.13;;;;;;;;;;10406354;28;20205;-71
2021/09/01 01:45:48;;;;;;;36.87;17.00;;;;;;;;;;10409266;28;20613;-71
2021/09/01 01:50:51;;;;;;;34.73;17.30;;;;;;;;;;10406472;28;20519;-71
2021/09/01 01:55:55;;;;;;;36.00;16.73;;;;;;;;;;10407662;28;20222;-71
2021/09/01 02:00:58;;;;;;;36.47;18.37;;;;;;;;;;10404419;28;20194;-70
2021/09/01 02:06:01;;;;;;;37.57;17.77;;;;;;;;;;10406026;28;20218;-71
2021/09/01 02:11:05;;;;;;;41.47;19.00;;;;;;;;;;10405543;28;20208;-70
2021/09/01 02:16:08;;;;;;;42.60;19.33;;;;;;;;;;10404268;28;20288;-69
2021/09/01 02:21:11;;;;;;;40.57;18.37;;;;;;;;;;10405108;28;20193;-71
2021/09/01 02:26:15;;;;;;;39.37;18.03;;;;;;;;;;10406133;28;20277;-71
2021/09/01 02:31:18;;;;;;;44.60;19.07;;;;;;;;;;10404948;28;20581;-71
2021/09/01 02:36:21;;;;;;;42.83;19.33;;;;;;;;;;10402252;28;20291;-70
2021/09/01 02:41:25;;;;;;;49.90;21.33;;;;;;;;;;10400451;28;20280;-71
2021/09/01 02:46:28;;;;;;;47.60;20.63;;;;;;;;;;10405113;28;20220;-70
2021/09/01 02:51:32;;;;;;;38.87;18.93;;;;;;;;;;10404763;28;20198;-68
2021/09/01 02:56:36;;;;;;;47.17;20.47;;;;;;;;;;10399386;28;20206;-70
2021/09/01 03:01:39;;;;;;;46.87;20.87;;;;;;;;;;10403938;28;20260;-70
2021/09/01 03:06:42;;;;;;;49.77;20.97;;;;;;;;;;10401081;28;20269;-72
2021/09/01 03:11:46;;;;;;;45.90;19.63;;;;;;;;;;10401274;28;20202;-70
2021/09/01 03:16:49;;;;;;;44.50;19.67;;;;;;;;;;10401997;28;20271;-71
2021/09/01 03:21:52;;;;;;;39.40;17.60;;;;;;;;;;10397427;28;20205;-70
2021/09/01 03:26:56;;;;;;;49.67;20.57;;;;;;;;;;10400491;28;20210;-70
2021/09/01 03:31:59;;;;;;;48.23;20.60;;;;;;;;;;10396701;28;20395;-70
2021/09/01 03:37:02;;;;;;;47.53;20.17;;;;;;;;;;10396638;28;20291;-72
2021/09/01 03:42:06;;;;;;;49.60;20.57;;;;;;;;;;10399185;28;20224;-70
2021/09/01 03:47:09;;;;;;;38.70;18.70;;;;;;;;;;10400512;28;20218;-70
2021/09/01 03:52:13;;;;;;;48.20;20.87;;;;;;;;;;10400306;28;20197;-71
2021/09/01 03:57:17;;;;;;;35.97;17.60;;;;;;;;;;10396438;28;20225;-71
2021/09/01 04:02:20;;;;;;;53.23;22.33;;;;;;;;;;10400165;28;20212;-70
2021/09/01 04:07:23;;;;;;;46.23;19.63;;;;;;;;;;10397778;28;20260;-70
2021/09/01 04:12:27;;;;;;;45.60;19.10;;;;;;;;;;10400771;28;20259;-69
2021/09/01 04:17:31;;;;;;;53.60;21.70;;;;;;;;;;10398113;28;20615;-71
2021/09/01 04:22:33;;;;;;;60.17;21.00;;;;;;;;;;10398544;28;20194;-70
2021/09/01 04:27:39;;;;;;;50.00;21.23;;;;;;;;;;10396729;28;20218;-72
2021/09/01 04:32:41;;;;;;;47.93;20.33;;;;;;;;;;10394638;28;20221;-69
2021/09/01 04:37:44;;;;;;;48.50;20.00;;;;;;;;;;10357958;28;1162186;-71
2021/09/01 04:42:49;;;;;;;44.57;17.90;;;;;;;;;;10398811;28;20202;-71
2021/09/01 04:47:51;;;;;;;43.27;19.00;;;;;;;;;;10397716;28;20202;-71
2021/09/01 04:52:54;;;;;;;42.63;18.13;;;;;;;;;;10398743;28;20214;-71
2021/09/01 04:58:00;;;;;;;32.47;16.33;;;;;;;;;;10398407;28;20240;-71
2021/09/01 05:03:03;;;;;;;28.60;14.33;;;;;;;;;;10397689;28;20212;-70
2021/09/01 05:08:06;;;;;;;27.60;15.33;;;;;;;;;;10399227;28;20201;-71
2021/09/01 05:13:10;;;;;;;32.20;14.60;;;;;;;;;;10401721;28;20234;-71
2021/09/01 05:18:13;;;;;;;27.17;13.53;;;;;;;;;;10419735;28;20202;-72
2021/09/01 05:23:17;;;;;;;25.43;12.70;;;;;;;;;;10401164;28;20259;-70
2021/09/01 05:28:24;;;;;;;22.67;12.47;;;;;;;;;;10390892;28;20228;-71
2021/09/01 05:33:28;;;;;;;22.60;12.00;;;;;;;;;;10396111;28;20719;-71
2021/09/01 05:38:33;;;;;;;23.80;11.27;;;;;;;;;;10396201;28;20209;-72
2021/09/01 05:43:37;;;;;;;20.33;11.10;;;;;;;;;;10397362;28;20217;-72
2021/09/01 05:48:40;;;;;;;19.33;11.30;;;;;;;;;;10394735;28;20194;-72
2021/09/01 05:53:43;;;;;;;22.50;11.30;;;;;;;;;;10393332;28;20217;-71
2021/09/01 05:58:53;;;;;;;22.77;11.57;;;;;;;;;;10394416;28;20248;-71
2021/09/01 06:03:58;;;;;;;19.07;10.83;;;;;;;;;;10394421;28;20721;-71
2021/09/01 06:09:01;;;;;;;17.27;10.30;;;;;;;;;;10390021;28;20206;-72
2021/09/01 06:14:05;;;;;;;17.23;10.13;;;;;;;;;;10392556;28;20225;-72
2021/09/01 06:19:08;;;;;;;19.03;10.83;;;;;;;;;;10399859;28;20201;-70
2021/09/01 06:24:21;;;;;;;19.10;11.07;;;;;;;;;;10398322;28;20209;-69
2021/09/01 06:29:26;;;;;;;20.83;12.13;;;;;;;;;;10403147;28;20210;-72
2021/09/01 06:34:28;;;;;;;22.23;12.37;;;;;;;;;;10400986;28;20259;-72
2021/09/01 06:39:31;;;;;;;19.30;11.27;;;;;;;;;;10400435;28;20574;-72
2021/09/01 06:44:36;;;;;;;16.20;10.20;;;;;;;;;;10402119;28;20297;-72
2021/09/01 06:49:38;;;;;;;14.23;8.90;;;;;;;;;;10398007;28;20558;-72
2021/09/01 06:54:41;;;;;;;13.43;7.90;;;;;;;;;;10403816;28;20229;-71
2021/09/01 06:59:45;;;;;;;12.77;6.67;;;;;;;;;;10399841;28;20194;-72
2021/09/01 07:04:48;;;;;;;10.97;6.70;;;;;;;;;;10401141;28;20735;-69
2021/09/01 07:09:51;;;;;;;9.70;6.00;;;;;;;;;;10395810;28;20194;-72
2021/09/01 07:14:55;;;;;;;11.07;6.30;;;;;;;;;;10397052;28;20299;-71
2021/09/01 07:19:58;;;;;;;9.82;6.85;;;;;;;;;;10399111;28;20202;-70
2021/09/01 07:25:06;;;;;;;10.73;7.10;;;;;;;;;;10397609;28;20212;-70
2021/09/01 07:30:11;;;;;;;9.32;5.70;;;;;;;;;;10394319;28;20190;-71
2021/09/01 07:35:14;;;;;;;11.18;6.50;;;;;;;;;;10400229;28;20229;-73
2021/09/01 07:40:19;;;;;;;9.23;6.53;;;;;;;;;;10398677;28;20189;-71
2021/09/01 07:45:23;;;;;;;9.20;5.95;;;;;;;;;;10398157;28;20233;-71
2021/09/01 07:50:27;;;;;;;8.52;5.85;;;;;;;;;;10400618;28;20185;-72
2021/09/01 07:55:30;;;;;;;10.85;7.40;;;;;;;;;;10393676;28;20217;-72
2021/09/01 08:00:34;;;;;;;10.25;6.20;;;;;;;;;;10397685;28;20625;-72
2021/09/01 08:05:38;;;;;;;11.60;8.18;;;;;;;;;;10393518;28;20227;-71
2021/09/01 08:10:40;;;;;;;9.57;6.25;;;;;;;;;;10396066;28;20189;-71
2021/09/01 08:15:45;;;;;;;8.52;4.93;;;;;;;;;;10394785;28;20226;-72
2021/09/01 08:20:48;;;;;;;9.57;6.35;;;;;;;;;;10394358;28;20204;-71
2021/09/01 08:25:51;;;;;;;9.93;5.70;;;;;;;;;;10397120;28;20316;-69
2021/09/01 08:30:55;;;;;;;8.70;4.93;;;;;;;;;;10396627;28;20221;-71
2021/09/01 08:35:58;;;;;;;9.35;5.35;;;;;;;;;;10391946;28;20239;-70
2021/09/01 08:41:01;;;;;;;8.20;5.40;;;;;;;;;;10394302;28;20206;-71
2021/09/01 08:46:05;;;;;;;8.95;5.60;;;;;;;;;;10406785;28;20214;-72
2021/09/01 08:51:08;;;;;;;8.32;5.45;;;;;;;;;;10394203;28;20194;-71
2021/09/01 08:56:11;;;;;;;8.93;5.75;;;;;;;;;;10397154;28;20209;-72
2021/09/01 09:01:28;;;;;;;7.85;5.20;;;;;;;;;;10394667;28;20189;-70
2021/09/01 09:06:44;;;;;;;9.70;5.88;;;;;;;;;;10395144;28;20292;-70
2021/09/01 09:11:47;;;;;;;8.10;5.75;;;;;;;;;;10394383;28;20282;-71
2021/09/01 09:17:00;;;;;;;8.57;5.75;;;;;;;;;;10396987;28;20562;-71
2021/09/01 09:22:06;;;;;;;9.90;5.90;;;;;;;;;;10395919;28;20384;-71
2021/09/01 09:27:09;;;;;;;10.25;5.53;;;;;;;;;;10391888;28;20224;-70
2021/09/01 09:32:12;;;;;;;9.13;5.35;;;;;;;;;;10393624;28;20198;-72
2021/09/01 09:37:17;;;;;;;8.82;5.30;;;;;;;;;;10390274;28;20271;-69
2021/09/01 09:42:29;;;;;;;9.48;5.13;;;;;;;;;;10396051;28;20748;-73
2021/09/01 09:47:47;;;;;;;8.80;5.60;;;;;;;;;;10383683;28;20260;-70
2021/09/01 09:52:52;;;;;;;7.53;5.05;;;;;;;;;;10384196;28;20259;-73
2021/09/01 09:57:55;;;;;;;7.45;5.07;;;;;;;;;;10401395;28;20202;-71
2021/09/01 10:02:58;;;;;;;8.45;5.07;;;;;;;;;;10399137;28;20439;-69
2021/09/01 10:08:03;;;;;;;9.45;4.78;;;;;;;;;;10399959;28;20197;-72
2021/09/01 10:13:06;;;;;;;8.10;4.90;;;;;;;;;;10389716;28;20335;-70
2021/09/01 10:18:10;;;;;;;8.38;4.90;;;;;;;;;;10398203;28;20639;-71
2021/09/01 10:23:14;;;;;;;8.10;5.15;;;;;;;;;;10400364;28;20224;-70
2021/09/01 10:28:34;;;;;;;7.05;4.63;;;;;;;;;;10392368;28;20241;-69
2021/09/01 10:33:40;;;;;;;6.88;4.40;;;;;;;;;;10400101;28;20252;-72
2021/09/01 10:38:45;;;;;;;7.28;4.43;;;;;;;;;;10399885;28;20670;-68
2021/09/01 10:43:49;;;;;;;6.80;4.13;;;;;;;;;;10395826;28;20226;-73
2021/09/01 10:49:00;;;;;;;6.18;4.10;;;;;;;;;;10394453;28;20630;-71
2021/09/01 10:54:18;;;;;;;6.97;4.90;;;;;;;;;;10410571;28;20226;-71
2021/09/01 10:59:25;;;;;;;6.13;4.00;;;;;;;;;;10397633;28;20452;-73
2021/09/01 11:04:28;;;;;;;7.22;4.47;;;;;;;;;;10393980;28;20222;-73
2021/09/01 11:09:31;;;;;;;6.97;4.22;;;;;;;;;;10391808;28;20190;-70
2021/09/01 11:14:37;;;;;;;6.63;4.55;;;;;;;;;;10400027;28;20222;-69
2021/09/01 11:19:40;;;;;;;7.10;4.45;;;;;;;;;;10397624;28;20601;-71
2021/09/01 11:24:44;;;;;;;6.47;4.05;;;;;;;;;;10401920;28;20222;-70
2021/09/01 11:29:49;;;;;;;6.15;4.00;;;;;;;;;;10389499;28;20213;-72
2021/09/01 11:34:52;;;;;;;6.63;4.25;;;;;;;;;;10402201;28;20209;-72
2021/09/01 11:39:55;;;;;;;6.55;3.75;;;;;;;;;;10399149;28;20935;-71
2021/09/01 11:45:07;;;;;;;6.60;3.80;;;;;;;;;;10390575;28;20220;-72
2021/09/01 11:50:10;;;;;;;7.38;4.47;;;;;;;;;;10396154;28;20265;-71
2021/09/01 11:55:13;;;;;;;6.60;4.45;;;;;;;;;;10396113;28;20320;-72
2021/09/01 12:00:18;;;;;;;7.07;4.10;;;;;;;;;;10388645;28;20564;-74
2021/09/01 12:05:30;;;;;;;7.25;4.00;;;;;;;;;;10397746;28;20214;-74
2021/09/01 12:10:33;;;;;;;6.07;3.92;;;;;;;;;;10392478;28;20208;-75
2021/09/01 12:15:55;;;;;;;6.82;4.25;;;;;;;;;;10387610;28;20661;-74
2021/09/01 12:20:59;;;;;;;6.55;3.65;;;;;;;;;;10396551;28;20666;-74
2021/09/01 12:26:04;;;;;;;7.32;4.38;;;;;;;;;;10387861;28;20230;-75
2021/09/01 12:31:18;;;;;;;6.90;4.03;;;;;;;;;;10389956;28;20194;-73
2021/09/01 12:36:25;;;;;;;6.47;4.00;;;;;;;;;;10396245;28;20301;-74
2021/09/01 12:41:28;;;;;;;6.68;3.95;;;;;;;;;;10396625;28;20329;-74
2021/09/01 12:46:32;;;;;;;6.47;3.97;;;;;;;;;;10375348;28;20217;-74
2021/09/01 12:51:35;;;;;;;7.30;4.30;;;;;;;;;;10385303;28;20280;-74
2021/09/01 12:56:40;;;;;;;7.20;3.95;;;;;;;;;;10389042;28;20319;-73
2021/09/01 13:01:45;;;;;;;6.93;4.00;;;;;;;;;;10397594;28;20725;-75
2021/09/01 13:06:48;;;;;;;7.55;4.25;;;;;;;;;;10394653;28;20215;-73
2021/09/01 13:11:51;;;;;;;6.30;3.47;;;;;;;;;;10394315;28;20198;-74
2021/09/01 13:16:55;;;;;;;6.85;3.65;;;;;;;;;;10391511;28;20328;-72
2021/09/01 13:21:58;;;;;;;6.63;4.05;;;;;;;;;;10387303;28;20197;-72
2021/09/01 13:27:01;;;;;;;7.00;4.10;;;;;;;;;;10384634;28;20594;-71
2021/09/01 13:32:06;;;;;;;7.30;3.70;;;;;;;;;;10391086;28;20550;-75
2021/09/01 13:37:09;;;;;;;7.00;3.70;;;;;;;;;;10398118;28;20705;-73
2021/09/01 13:42:12;;;;;;;6.00;3.50;;;;;;;;;;10412200;28;20190;-74
2021/09/01 13:47:16;;;;;;;6.88;3.80;;;;;;;;;;10394745;28;20222;-72
2021/09/01 13:52:19;;;;;;;6.85;3.40;;;;;;;;;;10392657;28;20364;-72
2021/09/01 13:57:22;;;;;;;5.55;3.22;;;;;;;;;;10397847;28;20316;-73
2021/09/01 14:02:26;;;;;;;7.88;4.03;;;;;;;;;;10396962;28;20611;-72
2021/09/01 14:07:29;;;;;;;7.80;3.67;;;;;;;;;;10397840;28;20220;-71
2021/09/01 14:12:33;;;;;;;7.95;3.95;;;;;;;;;;10398871;28;20593;-76
2021/09/01 14:17:37;;;;;;;7.55;4.10;;;;;;;;;;10399228;28;20214;-74
2021/09/01 14:22:40;;;;;;;6.18;3.63;;;;;;;;;;10400630;28;20185;-74
2021/09/01 14:27:43;;;;;;;8.23;3.90;;;;;;;;;;10393970;28;20210;-74
2021/09/01 14:32:47;;;;;;;7.00;3.88;;;;;;;;;;10402044;28;20573;-73
2021/09/01 14:37:50;;;;;;;6.22;3.75;;;;;;;;;;10399402;28;20664;-74
2021/09/01 14:42:52;;;;;;;7.05;3.95;;;;;;;;;;10400372;28;20209;-75
2021/09/01 14:47:57;;;;;;;8.80;5.63;;;;;;;;;;10401336;28;20674;-73
2021/09/01 14:53:00;;;;;;;7.07;3.90;;;;;;;;;;10403532;28;20256;-73
2021/09/01 14:58:02;;;;;;;6.43;3.80;;;;;;;;;;10420952;28;20201;-74
2021/09/01 15:03:07;;;;;;;7.22;4.07;;;;;;;;;;10402951;28;20219;-77
2021/09/01 15:08:10;;;;;;;7.15;4.00;;;;;;;;;;10400688;28;20201;-75
2021/09/01 15:13:13;;;;;;;7.65;3.97;;;;;;;;;;10398728;28;20339;-74
2021/09/01 15:18:18;;;;;;;6.68;3.80;;;;;;;;;;10399333;28;20669;-77
2021/09/01 15:23:21;;;;;;;6.15;3.60;;;;;;;;;;10402937;28;20256;-75
2021/09/01 15:28:24;;;;;;;6.60;3.88;;;;;;;;;;10400917;28;20190;-74
2021/09/01 15:33:28;;;;;;;6.93;3.47;;;;;;;;;;10404711;28;20221;-74
2021/09/01 15:38:33;;;;;;;7.25;3.58;;;;;;;;;;10400360;28;20397;-73
2021/09/01 15:43:38;;;;;;;7.28;3.95;;;;;;;;;;10398858;28;20214;-74
2021/09/01 15:48:44;;;;;;;8.23;4.60;;;;;;;;;;10389956;28;20638;-75
2021/09/01 15:53:48;;;;;;;7.35;3.67;;;;;;;;;;10385245;28;20547;-72
2021/09/01 15:58:51;;;;;;;6.50;3.70;;;;;;;;;;10387282;28;20495;-72
2021/09/01 16:03:56;;;;;;;7.10;3.72;;;;;;;;;;10393540;28;20206;-72
2021/09/01 16:08:59;;;;;;;8.18;3.60;;;;;;;;;;10395473;28;20190;-74
2021/09/01 16:14:05;;;;;;;7.45;3.97;;;;;;;;;;10384722;28;20232;-72
2021/09/01 16:19:14;;;;;;;7.35;4.05;;;;;;;;;;10392281;28;20209;-73
2021/09/01 16:24:18;;;;;;;8.05;3.88;;;;;;;;;;10399442;28;20210;-72
2021/09/01 16:29:26;;;;;;;7.40;4.15;;;;;;;;;;10390457;28;20368;-73
2021/09/01 16:34:31;;;;;;;7.70;4.07;;;;;;;;;;10398426;28;20264;-73
2021/09/01 16:39:34;;;;;;;6.78;3.80;;;;;;;;;;10393090;28;20832;-74
2021/09/01 16:44:37;;;;;;;7.03;3.58;;;;;;;;;;10399066;28;20573;-74
2021/09/01 16:49:41;;;;;;;7.10;3.80;;;;;;;;;;10400476;28;20178;-74
2021/09/01 16:54:49;;;;;;;9.37;4.80;;;;;;;;;;10416076;28;20229;-73
2021/09/01 16:59:55;;;;;;;6.63;3.40;;;;;;;;;;10401419;28;20220;-74
2021/09/01 17:04:59;;;;;;;6.90;3.17;;;;;;;;;;10393195;28;20641;-72
2021/09/01 17:10:04;;;;;;;7.87;4.10;;;;;;;;;;10415975;28;20190;-71
2021/09/01 17:15:07;;;;;;;9.03;3.67;;;;;;;;;;10414873;28;20717;-71
2021/09/01 17:20:12;;;;;;;6.63;3.33;;;;;;;;;;10394110;28;20201;-72
2021/09/01 17:25:15;;;;;;;7.17;3.27;;;;;;;;;;10390822;28;20296;-73
2021/09/01 17:30:19;;;;;;;6.27;3.10;;;;;;;;;;10390936;28;20271;-71
2021/09/01 17:35:23;;;;;;;7.50;3.43;;;;;;;;;;10392871;28;20698;-72
2021/09/01 17:40:27;;;;;;;7.67;3.40;;;;;;;;;;10392432;28;20628;-71
2021/09/01 17:45:30;;;;;;;8.20;3.40;;;;;;;;;;10394362;28;20272;-70
2021/09/01 17:50:35;;;;;;;6.27;3.33;;;;;;;;;;10393405;28;20263;-69
2021/09/01 17:55:38;;;;;;;6.27;3.10;;;;;;;;;;10394889;28;20241;-72
2021/09/01 18:00:40;;;;;;;8.00;3.53;;;;;;;;;;10394703;28;20221;-70
2021/09/01 18:05:45;;;;;;;11.67;6.80;;;;;;;;;;10386550;28;20297;-69
2021/09/01 18:10:48;;;;;;;8.27;4.03;;;;;;;;;;10389547;28;20190;-69
2021/09/01 18:15:51;;;;;;;8.33;4.27;;;;;;;;;;10400340;28;20217;-70
2021/09/01 18:20:56;;;;;;;11.33;5.90;;;;;;;;;;10402919;28;20202;-72
2021/09/01 18:25:59;;;;;;;8.63;4.63;;;;;;;;;;10395763;28;20222;-69
2021/09/01 18:31:01;;;;;;;7.60;4.10;;;;;;;;;;10396486;28;20538;-72
2021/09/01 18:36:06;;;;;;;7.60;3.90;;;;;;;;;;10411717;28;20229;-72
2021/09/01 18:41:27;;;;;;;8.33;4.17;;;;;;;;;;10394385;28;20233;-71
2021/09/01 18:46:31;;;;;;;10.40;4.60;;;;;;;;;;10394430;28;20253;-70
2021/09/01 18:51:36;;;;;;;10.50;4.83;;;;;;;;;;10391717;28;20217;-73
2021/09/01 18:56:39;;;;;;;9.53;4.50;;;;;;;;;;10394535;28;20260;-72
2021/09/01 19:01:43;;;;;;;9.70;4.60;;;;;;;;;;10393829;28;20226;-71
2021/09/01 19:06:48;;;;;;;9.83;4.70;;;;;;;;;;10390333;28;20571;-72
2021/09/01 19:11:54;;;;;;;8.30;4.37;;;;;;;;;;10392238;28;20236;-70
2021/09/01 19:16:56;;;;;;;9.27;4.10;;;;;;;;;;10394134;28;20918;-71
2021/09/01 19:22:01;;;;;;;8.70;4.10;;;;;;;;;;10395677;28;20260;-72
2021/09/01 19:27:04;;;;;;;10.17;5.67;;;;;;;;;;10391930;28;20633;-72
2021/09/01 19:32:07;;;;;;;10.07;4.53;;;;;;;;;;10391772;28;20269;-71
2021/09/01 19:37:11;;;;;;;7.53;4.10;;;;;;;;;;10390193;28;20225;-72
2021/09/01 19:42:16;;;;;;;9.73;4.60;;;;;;;;;;10388688;28;20198;-72
2021/09/01 19:47:18;;;;;;;9.50;4.37;;;;;;;;;;10391037;28;20202;-72
2021/09/01 19:52:23;;;;;;;8.73;4.70;;;;;;;;;;10389501;28;20236;-71
2021/09/01 19:57:26;;;;;;;10.07;5.27;;;;;;;;;;10388551;28;20666;-72
2021/09/01 20:02:29;;;;;;;10.40;4.93;;;;;;;;;;10384605;28;20251;-69
2021/09/01 20:07:33;;;;;;;9.47;5.10;;;;;;;;;;10387338;28;20229;-70
2021/09/01 20:12:36;;;;;;;8.67;4.80;;;;;;;;;;10386280;28;20296;-69
2021/09/01 20:17:39;;;;;;;12.17;6.97;;;;;;;;;;10384462;28;20661;-70
2021/09/01 20:22:43;;;;;;;10.07;5.50;;;;;;;;;;10391904;28;20332;-69
2021/09/01 20:27:46;;;;;;;9.53;4.83;;;;;;;;;;10376018;28;20222;-71
2021/09/01 20:32:50;;;;;;;9.47;5.07;;;;;;;;;;10390083;28;20197;-71
2021/09/01 20:37:54;;;;;;;8.93;4.97;;;;;;;;;;10394123;28;20291;-72
2021/09/01 20:43:00;;;;;;;11.00;5.83;;;;;;;;;;10390365;28;20209;-71
2021/09/01 20:48:06;;;;;;;11.50;5.27;;;;;;;;;;10395748;28;20229;-69
2021/09/01 20:53:14;;;;;;;9.43;5.50;;;;;;;;;;10395719;28;20222;-70
2021/09/01 20:58:16;;;;;;;9.70;5.20;;;;;;;;;;10405214;28;20221;-71
2021/09/01 21:03:19;;;;;;;10.10;5.63;;;;;;;;;;10388156;28;20282;-69
2021/09/01 21:08:24;;;;;;;10.17;5.27;;;;;;;;;;10388077;28;20187;-71
2021/09/01 21:13:28;;;;;;;11.87;5.33;;;;;;;;;;10388451;28;20215;-71
2021/09/01 21:18:34;;;;;;;10.23;5.30;;;;;;;;;;10391026;28;20221;-69
2021/09/01 21:23:39;;;;;;;11.20;5.93;;;;;;;;;;10392154;28;20218;-71
2021/09/01 21:28:42;;;;;;;10.80;6.50;;;;;;;;;;10391197;28;20186;-68
2021/09/01 21:33:47;;;;;;;10.93;6.17;;;;;;;;;;10392236;28;20226;-71
2021/09/01 21:38:52;;;;;;;11.87;6.20;;;;;;;;;;10391136;28;20229;-70
2021/09/01 21:43:55;;;;;;;11.97;6.43;;;;;;;;;;10390273;28;20219;-74
2021/09/01 21:48:58;;;;;;;11.50;6.03;;;;;;;;;;10392014;28;20672;-70
2021/09/01 21:54:02;;;;;;;11.17;5.83;;;;;;;;;;10396116;28;20222;-71
2021/09/01 21:59:05;;;;;;;10.50;6.00;;;;;;;;;;10399574;28;20206;-70
2021/09/01 22:04:08;;;;;;;12.23;6.40;;;;;;;;;;10397585;28;20239;-70
2021/09/01 22:09:13;;;;;;;10.53;5.83;;;;;;;;;;10397827;28;20193;-71
2021/09/01 22:14:16;;;;;;;11.00;5.80;;;;;;;;;;10396997;28;20590;-72
2021/09/01 22:19:19;;;;;;;10.43;6.07;;;;;;;;;;10398795;28;20213;-71
2021/09/01 22:24:23;;;;;;;11.27;6.30;;;;;;;;;;10397155;28;20296;-70
2021/09/01 22:29:26;;;;;;;12.80;6.23;;;;;;;;;;10396448;28;20198;-71
2021/09/01 22:34:28;;;;;;;11.03;6.53;;;;;;;;;;10399727;28;20222;-70
2021/09/01 22:39:33;;;;;;;11.67;6.40;;;;;;;;;;10396433;28;20712;-68
2021/09/01 22:44:35;;;;;;;11.20;5.90;;;;;;;;;;10401799;28;20222;-70
2021/09/01 22:49:38;;;;;;;10.80;6.23;;;;;;;;;;10398875;28;20220;-69
2021/09/01 22:54:42;;;;;;;10.63;6.07;;;;;;;;;;10395825;28;20294;-74
2021/09/01 22:59:45;;;;;;;11.00;6.37;;;;;;;;;;10402257;28;20218;-69
2021/09/01 23:04:48;;;;;;;10.27;5.43;;;;;;;;;;10405876;28;20297;-68
2021/09/01 23:09:53;;;;;;;11.73;6.40;;;;;;;;;;10397103;28;20205;-70
2021/09/01 23:14:55;;;;;;;10.97;6.00;;;;;;;;;;10405861;28;20209;-69
2021/09/01 23:19:58;;;;;;;10.90;6.30;;;;;;;;;;10402822;28;20699;-70
2021/09/01 23:25:03;;;;;;;10.43;6.00;;;;;;;;;;10393962;28;20217;-69
2021/09/01 23:30:07;;;;;;;11.77;6.53;;;;;;;;;;10401160;28;20689;-69
2021/09/01 23:35:11;;;;;;;11.70;6.10;;;;;;;;;;10401581;28;20217;-69
2021/09/01 23:40:15;;;;;;;11.30;5.93;;;;;;;;;;10403019;28;20260;-67
2021/09/01 23:45:18;;;;;;;10.47;5.93;;;;;;;;;;10402395;28;20214;-68
2021/09/01 23:50:21;;;;;;;11.13;6.50;;;;;;;;;;10398650;28;20439;-68
2021/09/01 23:55:25;;;;;;;11.53;6.60;;;;;;;;;;10402057;28;20218;-72
